Time;durP1;ratioP1;P1;durP2;ratioP2;P2;SDS_P1;SDS_P2;PMS_P1;PMS_P2;Temp;Humidity;BMP_temperature;BMP_pressure;BME280_temperature;BME280_humidity;BME280_pressure;Samples;Min_cycle;Max_cycle;Signal;HPM_P1;HPM_P2
2023/01/01 00:00:05;;;;;;;59.72;44.58;;;12.80;99.90;;;;;;5008419;28;20470;-67
2023/01/01 00:02:32;;;;;;;52.80;36.58;;;12.80;99.90;;;;;;5008554;28;20765;-67
2023/01/01 00:04:57;;;;;;;48.88;33.60;;;12.70;99.90;;;;;;5008019;28;20511;-67
2023/01/01 00:07:23;;;;;;;43.33;32.47;;;12.80;99.90;;;;;;5004763;28;20046;-67
2023/01/01 00:12:34;;;;;;;50.65;32.92;;;12.70;99.90;;;;;;5006844;28;20133;-67
2023/01/01 00:14:59;;;;;;;53.20;33.15;;;12.70;99.90;;;;;;5002881;28;20038;-67
2023/01/01 00:17:25;;;;;;;52.33;33.63;;;12.70;99.90;;;;;;4990692;28;20054;-67
2023/01/01 00:19:51;;;;;;;57.22;31.15;;;12.70;99.90;;;;;;5008670;28;20044;-67
2023/01/01 00:22:17;;;;;;;59.28;33.22;;;12.70;99.90;;;;;;5008973;28;20050;-67
2023/01/01 00:24:43;;;;;;;50.83;34.13;;;12.70;99.90;;;;;;4995888;28;20434;-68
2023/01/01 00:27:09;;;;;;;43.65;30.25;;;12.60;99.90;;;;;;4997150;28;20042;-67
2023/01/01 00:29:34;;;;;;;46.28;32.53;;;12.60;99.90;;;;;;4979322;28;20041;-67
2023/01/01 00:32:00;;;;;;;42.13;33.38;;;12.50;99.90;;;;;;5007560;28;20041;-67
2023/01/01 00:34:25;;;;;;;57.63;37.40;;;12.50;99.90;;;;;;5006835;28;20042;-67
2023/01/01 00:36:51;;;;;;;46.05;34.38;;;12.60;99.90;;;;;;5006637;28;20529;-67
2023/01/01 00:39:17;;;;;;;46.17;31.92;;;12.50;99.90;;;;;;5007667;28;20201;-67
2023/01/01 00:41:42;;;;;;;46.20;33.13;;;12.50;99.90;;;;;;5006913;28;20049;-67
2023/01/01 00:44:08;;;;;;;48.67;34.65;;;12.40;99.90;;;;;;5006145;28;20041;-67
2023/01/01 00:46:34;;;;;;;52.92;30.45;;;12.40;99.90;;;;;;5004510;28;20042;-67
2023/01/01 00:48:59;;;;;;;52.92;30.95;;;12.40;99.90;;;;;;4996375;28;20042;-67
2023/01/01 00:51:25;;;;;;;43.08;29.40;;;12.40;99.90;;;;;;5007355;28;20042;-67
2023/01/01 00:53:51;;;;;;;57.60;30.02;;;12.40;99.90;;;;;;5007182;28;20116;-67
2023/01/01 00:56:16;;;;;;;47.03;30.00;;;12.40;99.90;;;;;;5006817;28;20045;-67
2023/01/01 00:58:43;;;;;;;45.47;28.38;;;12.40;99.90;;;;;;5007803;28;20049;-67
2023/01/01 01:01:09;;;;;;;40.33;28.48;;;12.40;99.90;;;;;;5007807;28;20415;-67
2023/01/01 01:03:39;;;;;;;50.70;31.63;;;12.40;99.90;;;;;;5007433;28;20124;-67
2023/01/01 01:06:05;;;;;;;42.70;29.70;;;12.50;99.90;;;;;;5005773;28;20533;-67
2023/01/01 01:08:33;;;;;;;42.92;28.30;;;12.40;99.90;;;;;;5007109;28;20134;-67
2023/01/01 01:11:15;;;;;;;55.85;29.10;;;12.40;99.90;;;;;;5007614;28;20046;-67
2023/01/01 01:13:42;;;;;;;42.65;28.52;;;12.50;99.90;;;;;;5006558;28;20037;-67
2023/01/01 01:16:34;;;;;;;50.50;30.15;;;12.50;99.90;;;;;;5008068;28;20061;-67
2023/01/01 01:19:02;;;;;;;58.40;30.50;;;12.60;99.90;;;;;;5005212;28;20108;-68
2023/01/01 01:21:31;;;;;;;44.88;31.58;;;12.60;99.90;;;;;;5004401;28;20103;-67
2023/01/01 01:24:02;;;;;;;50.45;31.15;;;12.60;99.90;;;;;;5003577;28;20046;-67
2023/01/01 01:26:32;;;;;;;49.28;31.80;;;12.70;99.90;;;;;;4996047;28;20038;-67
2023/01/01 01:28:58;;;;;;;44.55;28.85;;;12.70;99.90;;;;;;5006574;28;20096;-68
2023/01/01 01:31:27;;;;;;;47.35;31.55;;;12.70;99.90;;;;;;5006199;28;20495;-67
2023/01/01 01:33:53;;;;;;;41.33;30.08;;;12.60;99.90;;;;;;4999243;28;20053;-67
2023/01/01 01:36:19;;;;;;;48.58;32.33;;;12.70;99.90;;;;;;5006767;28;20054;-67
2023/01/01 01:38:45;;;;;;;55.67;31.25;;;12.70;99.90;;;;;;5006798;28;20068;-67
2023/01/01 01:41:17;;;;;;;49.50;30.77;;;12.70;99.90;;;;;;5003740;28;20057;-67
2023/01/01 01:43:45;;;;;;;48.15;31.58;;;12.60;99.90;;;;;;5007005;28;20089;-68
2023/01/01 01:46:19;;;;;;;42.60;29.20;;;12.70;99.90;;;;;;5007252;28;20081;-68
2023/01/01 01:48:50;;;;;;;44.97;29.27;;;12.60;99.90;;;;;;4990143;28;20057;-67
2023/01/01 01:51:27;;;;;;;44.55;29.23;;;12.60;99.90;;;;;;5006585;28;20069;-67
2023/01/01 01:53:58;;;;;;;41.83;29.58;;;12.70;99.90;;;;;;5007327;28;20116;-67
2023/01/01 01:56:44;;;;;;;48.88;31.05;;;12.60;99.90;;;;;;5010414;28;20116;-67
2023/01/01 01:59:10;;;;;;;57.30;30.90;;;12.60;99.90;;;;;;5006449;28;20087;-67
2023/01/01 02:01:35;;;;;;;38.92;29.45;;;12.60;99.90;;;;;;4992992;28;20046;-67
2023/01/01 02:04:02;;;;;;;56.75;30.98;;;12.60;99.90;;;;;;5009506;28;20042;-67
2023/01/01 02:06:30;;;;;;;39.33;28.23;;;12.50;99.90;;;;;;5008604;28;20164;-67
2023/01/01 02:08:58;;;;;;;49.28;31.98;;;12.50;99.90;;;;;;5006802;28;20181;-67
2023/01/01 02:11:25;;;;;;;51.83;31.65;;;12.50;99.90;;;;;;5010765;28;20042;-67
2023/01/01 02:13:54;;;;;;;53.90;33.05;;;12.50;99.90;;;;;;5006522;28;20046;-67
2023/01/01 02:16:26;;;;;;;42.38;30.95;;;12.50;99.90;;;;;;5009807;28;20121;-67
2023/01/01 02:19:10;;;;;;;49.53;31.52;;;12.50;99.90;;;;;;5001462;28;20070;-67
2023/01/01 02:21:58;;;;;;;44.88;30.88;;;12.50;99.90;;;;;;4990000;28;20997;-67
2023/01/01 02:24:49;;;;;;;48.88;31.92;;;12.50;99.90;;;;;;5009829;28;20052;-67
2023/01/01 02:27:25;;;;;;;44.65;33.85;;;12.50;99.90;;;;;;5006656;28;20049;-67
2023/01/01 02:30:02;;;;;;;46.38;31.65;;;12.40;99.90;;;;;;5005327;28;20060;-67
2023/01/01 02:32:45;;;;;;;51.47;32.83;;;12.50;99.90;;;;;;5009907;28;20125;-67
2023/01/01 02:35:33;;;;;;;58.40;33.20;;;12.50;99.90;;;;;;5009639;28;20046;-67
2023/01/01 02:38:03;;;;;;;53.72;30.38;;;12.50;99.90;;;;;;5006676;28;20050;-67
2023/01/01 02:40:30;;;;;;;48.38;31.63;;;12.50;99.90;;;;;;5009266;28;20050;-67
2023/01/01 02:42:57;;;;;;;47.35;32.22;;;12.50;99.90;;;;;;5009841;28;20040;-67
2023/01/01 02:45:23;;;;;;;38.25;27.95;;;12.50;99.90;;;;;;5009474;28;20081;-67
2023/01/01 02:47:48;;;;;;;45.97;29.80;;;12.50;99.90;;;;;;5008834;28;20547;-67
2023/01/01 02:50:26;;;;;;;44.05;26.20;;;12.60;99.90;;;;;;5009575;28;20116;-67
2023/01/01 02:53:13;;;;;;;41.92;26.55;;;12.50;99.90;;;;;;5001783;28;20041;-67
2023/01/01 02:56:01;;;;;;;42.93;26.80;;;12.60;99.90;;;;;;4992266;28;20414;-67
2023/01/01 03:01:47;;;;;;;38.05;24.58;;;12.50;99.90;;;;;;5002711;28;20050;-67
2023/01/01 03:04:33;;;;;;;45.92;24.50;;;12.50;99.90;;;;;;5009418;28;20050;-67
2023/01/01 03:07:07;;;;;;;36.58;24.83;;;12.50;99.90;;;;;;5009615;28;20042;-67
2023/01/01 03:09:43;;;;;;;32.10;23.63;;;12.50;99.90;;;;;;4991307;28;20048;-67
2023/01/01 03:12:20;;;;;;;33.58;23.02;;;12.50;99.90;;;;;;5008656;28;20498;-67
2023/01/01 03:15:00;;;;;;;31.65;20.30;;;12.50;99.90;;;;;;5008652;28;20116;-67
2023/01/01 03:17:28;;;;;;;33.72;21.17;;;12.60;99.90;;;;;;5008958;28;20096;-67
2023/01/01 03:19:56;;;;;;;;;;;12.50;99.90;;;;;;5007873;28;20133;-67
2023/01/01 03:22:24;;;;;;;;;;;12.60;99.90;;;;;;5008598;28;20019;-67
2023/01/01 03:24:59;;;;;;;26.98;15.55;;;12.60;99.90;;;;;;5008923;28;20071;-67
2023/01/01 03:27:30;;;;;;;31.92;16.17;;;12.60;99.90;;;;;;4987517;28;20058;-67
2023/01/01 03:30:01;;;;;;;32.10;15.50;;;12.70;99.90;;;;;;5008468;28;20033;-67
2023/01/01 03:35:20;;;;;;;23.83;12.95;;;12.70;99.90;;;;;;4991311;28;20082;-67
2023/01/01 03:37:48;;;;;;;26.27;12.25;;;12.80;99.90;;;;;;5006876;28;20129;-67
2023/01/01 03:40:17;;;;;;;29.73;10.82;;;12.80;99.90;;;;;;5007902;28;20137;-67
2023/01/01 03:42:50;;;;;;;17.38;10.20;;;12.80;99.90;;;;;;5008291;28;20038;-67
2023/01/01 03:45:23;;;;;;;14.65;9.27;;;12.80;99.90;;;;;;5007517;28;20045;-67
2023/01/01 03:47:48;;;;;;;21.02;9.18;;;12.90;99.90;;;;;;5008298;28;20411;-67
2023/01/01 03:50:15;;;;;;;20.17;9.85;;;12.90;99.90;;;;;;5008271;28;20052;-67
2023/01/01 03:52:41;;;;;;;12.95;8.07;;;12.90;99.90;;;;;;5008685;28;20050;-67
2023/01/01 03:56:01;;;;;;;14.20;8.63;;;12.90;99.90;;;;;;5008847;28;20057;-68
2023/01/01 03:58:42;;;;;;;15.57;8.10;;;12.90;99.90;;;;;;4925384;29;20665;-67
2023/01/01 04:01:10;;;;;;;12.65;7.90;;;12.90;99.90;;;;;;4909365;29;20553;-67
2023/01/01 04:03:37;;;;;;;;;;;13.00;99.90;;;;;;4956280;28;20061;-68
2023/01/01 04:06:03;;;;;;;16.92;6.18;;;13.00;99.90;;;;;;5007300;28;19929;-67
2023/01/01 04:08:32;;;;;;;13.57;7.13;;;13.00;99.90;;;;;;5008603;28;20081;-67
2023/01/01 04:12:00;;;;;;;21.17;6.72;;;13.00;99.90;;;;;;4975150;28;20076;-67
2023/01/01 04:13:47;;;;;;;17.92;6.88;;;13.00;99.90;;;;;;5008405;28;21198;-67
2023/01/01 04:16:12;;;;;;;17.23;6.75;;;13.10;99.90;;;;;;4991184;28;21067;-68
2023/01/01 04:18:38;;;;;;;13.52;5.35;;;13.10;99.90;;;;;;5000656;28;20042;-67
2023/01/01 04:21:04;;;;;;;10.32;6.10;;;13.00;99.90;;;;;;5004776;28;20127;-68
2023/01/01 04:23:30;;;;;;;6.90;5.00;;;13.00;99.90;;;;;;5003162;28;20101;-67
2023/01/01 04:25:55;;;;;;;19.48;7.18;;;13.10;99.90;;;;;;5008194;28;20169;-67
2023/01/01 04:28:21;;;;;;;10.40;6.05;;;13.10;99.90;;;;;;4991550;28;20049;-67
2023/01/01 04:30:47;;;;;;;22.85;6.00;;;13.10;99.90;;;;;;5007930;28;20046;-67
2023/01/01 04:33:12;;;;;;;16.27;5.18;;;13.10;99.90;;;;;;5008700;28;20136;-68
2023/01/01 04:35:38;;;;;;;17.27;5.65;;;13.10;99.90;;;;;;5008164;28;20050;-68
2023/01/01 04:38:03;;;;;;;13.27;6.40;;;13.20;99.90;;;;;;5007353;28;20080;-67
2023/01/01 04:40:29;;;;;;;10.20;5.18;;;13.20;99.90;;;;;;5000793;28;20049;-68
2023/01/01 04:42:55;;;;;;;13.68;5.88;;;13.10;99.90;;;;;;5004812;28;20034;-68
2023/01/01 04:45:20;;;;;;;9.88;5.80;;;13.20;99.90;;;;;;5007964;28;20057;-68
2023/01/01 04:47:46;;;;;;;13.48;5.43;;;13.10;99.90;;;;;;5008819;28;20137;-67
2023/01/01 04:50:12;;;;;;;10.88;5.57;;;13.20;99.90;;;;;;5008187;28;20054;-67
2023/01/01 04:52:37;;;;;;;10.93;5.13;;;13.10;99.90;;;;;;4999099;28;20052;-68
2023/01/01 04:55:03;;;;;;;9.77;5.03;;;13.10;99.90;;;;;;5007852;28;20038;-68
2023/01/01 04:57:29;;;;;;;12.52;5.05;;;13.00;99.90;;;;;;5008314;28;20049;-68
2023/01/01 04:59:55;;;;;;;14.40;5.82;;;12.80;99.90;;;;;;5008360;28;20048;-67
2023/01/01 05:02:21;;;;;;;13.40;5.03;;;12.80;99.90;;;;;;5007828;28;20034;-67
2023/01/01 05:04:46;;;;;;;8.68;5.07;;;12.80;99.90;;;;;;5008336;28;20092;-67
2023/01/01 05:07:12;;;;;;;9.50;4.88;;;12.80;99.90;;;;;;5007944;28;20470;-67
2023/01/01 05:09:38;;;;;;;12.45;4.93;;;12.80;99.90;;;;;;5003981;28;20038;-68
2023/01/01 05:12:04;;;;;;;10.30;5.43;;;12.80;99.90;;;;;;5007837;28;20042;-67
2023/01/01 05:14:29;;;;;;;12.57;5.43;;;12.80;99.90;;;;;;5007582;28;20054;-68
2023/01/01 05:16:55;;;;;;;12.85;5.07;;;12.80;99.90;;;;;;5006987;28;20101;-68
2023/01/01 05:19:21;;;;;;;10.07;4.85;;;12.90;99.90;;;;;;5005915;28;20480;-67
2023/01/01 05:21:46;;;;;;;9.77;3.92;;;12.90;99.90;;;;;;5006941;28;20120;-67
2023/01/01 05:24:12;;;;;;;12.40;4.22;;;13.00;99.90;;;;;;5007222;28;20057;-67
2023/01/01 05:26:41;;;;;;;13.35;4.88;;;13.00;99.90;;;;;;5006431;28;20053;-68
2023/01/01 05:29:06;;;;;;;11.45;4.05;;;13.00;99.90;;;;;;5007910;28;20037;-67
2023/01/01 05:31:34;;;;;;;11.43;4.53;;;13.00;99.90;;;;;;5010961;28;20078;-68
2023/01/01 05:34:01;;;;;;;8.63;3.75;;;13.00;99.90;;;;;;5010653;28;20128;-67
2023/01/01 05:36:29;;;;;;;9.27;3.22;;;12.90;99.90;;;;;;5009445;28;20097;-67
2023/01/01 05:38:55;;;;;;;;;;;13.00;99.90;;;;;;5011624;28;20046;-67
2023/01/01 05:41:21;;;;;;;5.82;3.47;;;12.90;99.90;;;;;;4996921;28;20701;-67
2023/01/01 05:43:47;;;;;;;10.18;4.25;;;12.90;99.90;;;;;;5011265;28;20152;-67
2023/01/01 05:46:16;;;;;;;9.45;3.42;;;12.90;99.90;;;;;;5011296;28;20042;-68
2023/01/01 05:48:42;;;;;;;9.68;3.20;;;12.90;99.90;;;;;;5010213;28;20054;-67
2023/01/01 05:51:17;;;;;;;8.63;2.80;;;12.80;99.90;;;;;;4993343;28;20049;-67
2023/01/01 05:53:46;;;;;;;9.73;4.35;;;12.80;99.90;;;;;;5010698;28;20456;-68
2023/01/01 05:56:13;;;;;;;15.07;3.90;;;12.80;99.90;;;;;;5011397;28;20052;-67
2023/01/01 05:58:39;;;;;;;10.90;3.60;;;12.70;99.90;;;;;;5010844;28;20046;-67
2023/01/01 06:01:08;;;;;;;10.77;3.53;;;12.70;99.90;;;;;;4988329;28;20077;-67
2023/01/01 06:03:33;;;;;;;7.10;3.53;;;12.80;99.90;;;;;;4992897;28;20054;-67
2023/01/01 06:06:10;;;;;;;8.43;3.08;;;12.70;99.90;;;;;;5010122;28;20038;-68
2023/01/01 06:08:36;;;;;;;5.05;2.97;;;12.70;99.90;;;;;;5010689;28;20479;-67
2023/01/01 06:11:04;;;;;;;3.53;2.17;;;12.70;99.90;;;;;;4993149;28;20046;-67
2023/01/01 06:13:30;;;;;;;8.23;3.00;;;12.70;99.90;;;;;;5000235;28;20079;-67
2023/01/01 06:15:58;;;;;;;5.63;2.97;;;12.60;99.90;;;;;;5008440;28;20045;-67
2023/01/01 06:18:24;;;;;;;15.38;3.92;;;12.60;99.90;;;;;;4998450;28;20054;-67
2023/01/01 06:20:50;;;;;;;3.67;3.10;;;12.60;99.90;;;;;;5009711;28;20419;-67
2023/01/01 06:23:16;;;;;;;5.25;2.50;;;12.50;99.90;;;;;;4992348;28;20045;-67
2023/01/01 06:25:42;;;;;;;5.35;2.60;;;12.50;99.90;;;;;;5010334;28;20049;-68
2023/01/01 06:28:08;;;;;;;4.78;2.47;;;12.40;99.90;;;;;;4995506;28;20057;-68
2023/01/01 06:30:33;;;;;;;24.85;3.60;;;12.50;99.90;;;;;;5010204;28;20042;-68
2023/01/01 06:33:03;;;;;;;8.25;2.72;;;12.50;99.90;;;;;;5009107;28;20065;-67
2023/01/01 06:35:29;;;;;;;6.18;2.42;;;12.40;99.90;;;;;;4996628;28;20062;-67
2023/01/01 06:37:54;;;;;;;5.15;2.45;;;12.30;99.90;;;;;;5004160;28;20042;-67
2023/01/01 06:40:20;;;;;;;5.30;2.33;;;12.40;99.90;;;;;;5008477;28;20168;-67
2023/01/01 06:42:46;;;;;;;7.80;2.65;;;12.30;99.90;;;;;;5005132;28;20818;-67
2023/01/01 06:45:12;;;;;;;10.60;2.72;;;12.30;99.90;;;;;;5007497;28;20061;-67
2023/01/01 06:47:38;;;;;;;6.35;2.47;;;12.30;99.90;;;;;;5008315;28;20042;-67
2023/01/01 06:50:04;;;;;;;7.38;3.33;;;12.20;99.90;;;;;;5009253;28;20491;-67
2023/01/01 06:52:30;;;;;;;7.35;2.97;;;12.30;99.90;;;;;;5009485;28;20041;-67
2023/01/01 06:54:56;;;;;;;9.45;2.58;;;12.20;99.90;;;;;;4991655;28;20041;-67
2023/01/01 06:57:22;;;;;;;3.75;2.55;;;12.10;99.90;;;;;;4996340;28;20042;-67
2023/01/01 06:59:48;;;;;;;11.63;4.30;;;12.20;99.90;;;;;;5007663;28;20137;-67
2023/01/01 07:02:14;;;;;;;5.78;3.00;;;12.10;99.90;;;;;;5004607;28;20570;-67
2023/01/01 07:04:40;;;;;;;8.88;3.63;;;12.20;99.90;;;;;;5009575;28;20053;-67
2023/01/01 07:07:05;;;;;;;7.35;2.75;;;12.10;99.90;;;;;;5008672;28;20057;-67
2023/01/01 07:09:33;;;;;;;13.93;4.57;;;12.10;99.90;;;;;;4991872;28;20050;-67
2023/01/01 07:11:59;;;;;;;5.20;2.83;;;12.10;99.90;;;;;;4990499;28;20415;-67
2023/01/01 07:14:24;;;;;;;8.98;4.07;;;12.10;99.90;;;;;;5005115;28;20026;-67
2023/01/01 07:16:50;;;;;;;8.98;2.88;;;12.00;99.90;;;;;;5003460;28;20562;-67
2023/01/01 07:19:16;;;;;;;7.45;3.05;;;12.00;99.90;;;;;;5002597;28;20116;-67
2023/01/01 07:21:59;;;;;;;7.75;2.63;;;12.00;99.90;;;;;;4993395;28;20043;-67
2023/01/01 07:24:25;;;;;;;15.38;4.22;;;12.00;99.90;;;;;;5004741;28;20084;-67
2023/01/01 07:26:51;;;;;;;13.82;4.10;;;12.00;99.90;;;;;;5008273;28;20045;-67
2023/01/01 07:29:16;;;;;;;15.40;5.80;;;12.00;99.90;;;;;;5000799;28;20046;-67
2023/01/01 07:31:43;;;;;;;14.95;4.30;;;12.00;99.90;;;;;;5007966;28;20041;-67
2023/01/01 07:34:14;;;;;;;11.48;4.20;;;12.00;99.90;;;;;;5008899;28;20553;-67
2023/01/01 07:36:40;;;;;;;12.70;3.33;;;11.90;99.90;;;;;;4990805;28;20057;-67
2023/01/01 07:39:06;;;;;;;8.95;3.15;;;11.90;99.90;;;;;;5008624;28;20077;-67
2023/01/01 07:41:32;;;;;;;10.27;3.45;;;11.90;99.90;;;;;;4999236;28;20436;-67
2023/01/01 07:43:57;;;;;;;7.20;3.35;;;11.80;99.90;;;;;;4990741;28;20046;-67
2023/01/01 07:46:23;;;;;;;6.25;3.22;;;11.90;99.90;;;;;;5005764;28;20069;-67
2023/01/01 07:48:49;;;;;;;7.55;3.08;;;11.90;99.90;;;;;;5009025;28;20041;-68
2023/01/01 07:51:14;;;;;;;12.43;4.47;;;11.90;99.90;;;;;;5008396;28;20046;-67
2023/01/01 07:53:40;;;;;;;6.43;2.88;;;11.80;99.90;;;;;;4997881;28;20042;-67
2023/01/01 07:56:06;;;;;;;8.85;3.17;;;11.90;99.90;;;;;;4998039;28;20099;-68
2023/01/01 07:58:32;;;;;;;10.30;2.80;;;11.90;99.90;;;;;;5007904;28;20499;-68
2023/01/01 08:00:58;;;;;;;12.18;4.07;;;11.90;99.90;;;;;;5007714;28;20038;-68
2023/01/01 08:03:23;;;;;;;17.48;4.45;;;11.80;99.90;;;;;;5001589;28;20049;-68
2023/01/01 08:05:49;;;;;;;7.45;3.13;;;11.80;99.90;;;;;;4994034;28;20462;-68
2023/01/01 08:08:15;;;;;;;11.70;3.13;;;11.90;99.90;;;;;;5006461;28;20054;-67
2023/01/01 08:10:40;;;;;;;8.77;3.85;;;11.80;99.90;;;;;;5017949;28;20045;-67
2023/01/01 08:13:08;;;;;;;14.75;3.58;;;11.80;99.90;;;;;;5008549;28;20046;-67
2023/01/01 08:15:34;;;;;;;9.32;2.70;;;11.80;99.90;;;;;;5008313;28;20050;-67
2023/01/01 08:18:03;;;;;;;8.55;3.03;;;11.80;99.90;;;;;;4987415;28;20049;-67
2023/01/01 08:20:32;;;;;;;14.40;4.40;;;11.80;99.90;;;;;;5011898;28;20049;-67
2023/01/01 08:22:58;;;;;;;15.77;3.63;;;11.70;99.90;;;;;;5008039;28;20065;-67
2023/01/01 08:25:24;;;;;;;12.90;3.42;;;11.70;99.90;;;;;;5001538;28;20054;-67
2023/01/01 08:27:50;;;;;;;10.32;3.45;;;11.70;99.90;;;;;;4985850;28;20069;-68
2023/01/01 08:30:16;;;;;;;18.90;4.10;;;11.70;99.90;;;;;;4999189;28;20042;-67
2023/01/01 08:32:42;;;;;;;10.55;3.58;;;11.70;99.90;;;;;;5001749;28;20041;-67
2023/01/01 08:35:08;;;;;;;10.77;3.45;;;11.70;99.90;;;;;;5004572;28;20057;-67
2023/01/01 08:37:34;;;;;;;11.48;3.38;;;11.70;99.90;;;;;;4996116;28;20089;-67
2023/01/01 08:39:59;;;;;;;23.63;4.28;;;11.60;99.90;;;;;;5004274;28;20467;-67
2023/01/01 08:42:25;;;;;;;7.90;3.20;;;11.70;99.90;;;;;;5006478;28;20038;-68
2023/01/01 08:44:51;;;;;;;11.13;3.05;;;11.70;99.90;;;;;;5006747;28;20121;-67
2023/01/01 08:47:24;;;;;;;7.43;3.42;;;11.60;99.90;;;;;;5006281;28;20918;-67
2023/01/01 08:49:50;;;;;;;18.23;4.25;;;11.70;99.90;;;;;;5006333;28;20046;-67
2023/01/01 08:52:16;;;;;;;12.60;3.92;;;11.60;99.90;;;;;;5006604;28;20037;-67
2023/01/01 08:54:42;;;;;;;9.15;3.25;;;11.70;99.90;;;;;;5007293;28;20384;-67
2023/01/01 08:57:07;;;;;;;11.10;4.05;;;11.60;99.90;;;;;;4999443;28;20065;-67
2023/01/01 08:59:33;;;;;;;13.30;3.80;;;11.60;99.90;;;;;;4999793;28;20452;-67
2023/01/01 09:01:59;;;;;;;7.85;3.20;;;11.60;99.90;;;;;;4987737;28;20042;-67
2023/01/01 09:04:25;;;;;;;12.50;3.33;;;11.60;99.90;;;;;;4999943;28;20492;-67
2023/01/01 09:06:51;;;;;;;17.65;3.92;;;11.60;99.90;;;;;;5003417;28;20042;-67
2023/01/01 09:09:17;;;;;;;11.48;4.03;;;11.60;99.90;;;;;;4998467;28;20517;-67
2023/01/01 09:11:50;;;;;;;9.20;3.53;;;11.60;99.90;;;;;;5001527;28;20120;-67
2023/01/01 09:14:16;;;;;;;12.38;4.32;;;11.60;99.90;;;;;;4990473;28;20077;-67
2023/01/01 09:16:41;;;;;;;11.27;3.40;;;11.50;99.90;;;;;;5009188;28;20466;-67
2023/01/01 09:19:07;;;;;;;16.23;3.20;;;11.50;99.90;;;;;;5002380;28;20045;-67
2023/01/01 09:21:33;;;;;;;10.85;3.78;;;11.60;99.90;;;;;;5006687;28;20446;-67
2023/01/01 09:23:58;;;;;;;12.57;3.13;;;11.50;99.90;;;;;;5007569;28;20660;-67
2023/01/01 09:26:24;;;;;;;14.43;3.53;;;11.50;99.90;;;;;;4990444;28;20052;-67
2023/01/01 09:28:50;;;;;;;12.52;3.85;;;11.60;99.90;;;;;;4988534;28;20038;-67
2023/01/01 09:31:15;;;;;;;14.77;4.28;;;11.60;99.90;;;;;;5006259;28;20099;-67
2023/01/01 09:33:41;;;;;;;15.13;3.10;;;11.60;99.90;;;;;;5005553;28;20100;-67
2023/01/01 09:36:34;;;;;;;12.55;4.30;;;11.60;99.90;;;;;;5001418;28;20072;-68
2023/01/01 09:39:01;;;;;;;9.60;3.60;;;11.60;99.90;;;;;;5007013;28;20396;-68
2023/01/01 09:41:49;;;;;;;14.77;3.85;;;11.60;99.90;;;;;;4989614;28;20520;-67
2023/01/01 09:44:52;;;;;;;14.77;3.90;;;11.60;99.90;;;;;;5005811;28;20085;-67
2023/01/01 09:47:33;;;;;;;14.38;3.70;;;11.60;99.90;;;;;;5004896;28;20104;-67
2023/01/01 09:50:05;;;;;;;14.20;3.55;;;11.60;99.90;;;;;;5007451;28;20050;-67
2023/01/01 09:53:00;;;;;;;13.82;3.50;;;11.70;99.90;;;;;;5006553;28;20034;-68
2023/01/01 09:55:44;;;;;;;13.93;4.22;;;11.70;99.90;;;;;;5002931;28;20081;-67
2023/01/01 09:58:11;;;;;;;18.30;4.35;;;11.60;99.90;;;;;;4985117;28;20046;-67
2023/01/01 10:00:42;;;;;;;18.33;4.20;;;11.60;99.90;;;;;;4989803;28;20042;-68
2023/01/01 10:03:24;;;;;;;10.43;3.90;;;11.70;99.90;;;;;;5002884;28;20083;-67
2023/01/01 10:06:05;;;;;;;22.23;4.72;;;11.60;99.90;;;;;;5005654;28;20173;-67
2023/01/01 10:08:42;;;;;;;10.80;3.55;;;11.70;99.90;;;;;;4982797;28;20136;-67
2023/01/01 10:11:19;;;;;;;20.52;4.57;;;11.70;99.90;;;;;;5005397;28;20048;-67
2023/01/01 10:13:45;;;;;;;28.58;4.78;;;11.70;99.90;;;;;;5005913;28;20096;-67
2023/01/01 10:16:17;;;;;;;18.45;4.22;;;11.60;99.90;;;;;;5005350;28;20038;-68
2023/01/01 10:18:46;;;;;;;13.93;3.88;;;11.60;99.90;;;;;;5010064;28;20046;-67
2023/01/01 10:21:21;;;;;;;6.80;3.03;;;11.60;99.90;;;;;;5009889;28;20037;-68
2023/01/01 10:24:19;;;;;;;20.10;3.10;;;11.60;99.90;;;;;;5010252;28;20447;-67
2023/01/01 10:26:46;;;;;;;17.98;3.65;;;11.60;99.90;;;;;;5003839;28;20056;-67
2023/01/01 10:29:27;;;;;;;14.25;3.95;;;11.60;99.90;;;;;;5010893;28;20046;-67
2023/01/01 10:31:55;;;;;;;14.52;3.38;;;11.60;99.90;;;;;;5010239;28;20069;-67
2023/01/01 10:34:25;;;;;;;12.35;4.13;;;11.60;99.90;;;;;;4990088;28;20056;-67
2023/01/01 10:36:54;;;;;;;19.77;4.22;;;11.60;99.90;;;;;;4989485;28;20061;-68
2023/01/01 10:39:20;;;;;;;13.27;3.15;;;11.60;99.90;;;;;;5009129;28;20414;-67
2023/01/01 10:41:48;;;;;;;9.90;3.33;;;11.60;99.90;;;;;;5010116;28;20042;-67
2023/01/01 10:44:40;;;;;;;13.77;3.65;;;11.60;99.90;;;;;;5009340;28;20044;-67
2023/01/01 10:47:12;;;;;;;11.98;2.83;;;11.70;99.90;;;;;;5002200;28;20663;-67
2023/01/01 10:49:54;;;;;;;14.63;3.90;;;11.80;99.90;;;;;;5009379;28;20042;-67
2023/01/01 10:52:25;;;;;;;18.17;3.90;;;11.80;99.90;;;;;;5006278;28;20081;-68
2023/01/01 10:54:52;;;;;;;14.23;2.92;;;11.90;99.90;;;;;;5009664;28;20652;-68
2023/01/01 10:57:34;;;;;;;9.43;3.78;;;11.90;99.90;;;;;;5010109;28;20064;-67
2023/01/01 11:00:19;;;;;;;13.65;3.65;;;11.90;99.90;;;;;;5001769;28;20435;-67
2023/01/01 11:02:45;;;;;;;31.45;4.97;;;12.00;99.90;;;;;;5008527;28;20560;-67
2023/01/01 11:05:21;;;;;;;10.15;2.80;;;12.00;99.90;;;;;;5001916;28;20038;-69
2023/01/01 11:07:47;;;;;;;10.68;3.63;;;12.00;99.90;;;;;;4993039;28;20092;-67
2023/01/01 11:10:28;;;;;;;21.83;3.72;;;12.10;99.90;;;;;;5008368;28;20076;-67
2023/01/01 11:12:54;;;;;;;11.25;3.20;;;12.10;99.90;;;;;;5004138;28;20054;-67
2023/01/01 11:15:29;;;;;;;11.98;3.00;;;12.10;99.90;;;;;;5006501;28;20042;-67
2023/01/01 11:18:03;;;;;;;11.73;3.08;;;12.20;99.90;;;;;;5008455;28;20116;-67
2023/01/01 11:20:29;;;;;;;9.02;3.38;;;12.20;99.90;;;;;;5010014;28;20053;-67
2023/01/01 11:22:55;;;;;;;15.30;3.88;;;12.20;99.90;;;;;;5009957;28;20046;-67
2023/01/01 11:25:26;;;;;;;23.58;3.55;;;12.20;99.90;;;;;;5004608;28;20096;-67
2023/01/01 11:28:19;;;;;;;16.98;4.10;;;12.20;99.90;;;;;;4992228;28;20148;-68
2023/01/01 11:30:57;;;;;;;8.35;3.38;;;12.20;99.90;;;;;;5001657;28;20080;-68
2023/01/01 11:33:23;;;;;;;;;;;12.20;99.90;;;;;;5009971;28;20046;-68
2023/01/01 11:35:52;;;;;;;14.48;4.25;;;12.20;99.90;;;;;;5000582;28;19984;-68
2023/01/01 11:38:19;;;;;;;18.42;4.57;;;12.20;99.90;;;;;;5006439;28;20042;-68
2023/01/01 11:40:50;;;;;;;15.73;3.38;;;12.20;99.90;;;;;;5001248;28;20049;-68
2023/01/01 11:43:21;;;;;;;15.10;4.60;;;12.20;99.90;;;;;;5008408;28;20045;-68
2023/01/01 11:45:48;;;;;;;19.02;4.70;;;12.20;99.90;;;;;;5003497;28;20766;-68
2023/01/01 11:48:18;;;;;;;14.40;4.72;;;12.20;99.90;;;;;;5005192;28;20096;-68
2023/01/01 11:51:32;;;;;;;10.25;3.85;;;12.20;99.90;;;;;;5004825;28;20606;-68
2023/01/01 11:54:22;;;;;;;14.77;4.30;;;12.20;99.90;;;;;;4978919;28;20527;-68
2023/01/01 11:56:53;;;;;;;14.77;3.30;;;12.20;99.90;;;;;;5005646;28;20042;-69
2023/01/01 11:59:26;;;;;;;17.00;3.70;;;12.20;99.90;;;;;;5000018;28;20085;-68
2023/01/01 12:01:57;;;;;;;9.02;3.28;;;12.20;99.90;;;;;;4999622;28;20042;-68
2023/01/01 12:04:32;;;;;;;20.30;4.10;;;12.20;99.90;;;;;;5007961;28;20130;-68
2023/01/01 12:07:01;;;;;;;24.90;5.45;;;12.20;99.90;;;;;;5004120;28;20049;-68
2023/01/01 12:09:49;;;;;;;13.43;3.67;;;12.20;99.90;;;;;;4989782;28;20510;-68
2023/01/01 12:12:36;;;;;;;11.98;4.13;;;12.30;99.90;;;;;;5004591;28;20049;-68
2023/01/01 12:15:30;;;;;;;14.23;3.05;;;12.30;99.90;;;;;;5000551;28;20053;-70
2023/01/01 12:17:58;;;;;;;15.55;3.40;;;12.30;99.90;;;;;;4993536;28;20067;-68
2023/01/01 12:20:25;;;;;;;17.42;4.40;;;12.30;99.90;;;;;;5007312;28;20082;-69
2023/01/01 12:22:54;;;;;;;12.45;3.78;;;12.30;99.90;;;;;;5005183;28;20053;-68
2023/01/01 12:25:20;;;;;;;11.40;3.13;;;12.30;99.90;;;;;;5002414;28;20494;-68
2023/01/01 12:28:07;;;;;;;8.73;3.92;;;12.30;99.90;;;;;;5003338;28;20136;-68
2023/01/01 12:30:57;;;;;;;16.50;4.15;;;12.30;99.90;;;;;;5004665;28;20056;-68
2023/01/01 12:33:52;;;;;;;9.98;3.95;;;12.20;99.90;;;;;;4989132;28;20081;-68
2023/01/01 12:36:22;;;;;;;10.65;3.75;;;12.20;99.90;;;;;;5002908;28;20100;-68
2023/01/01 12:39:05;;;;;;;16.63;3.95;;;12.20;99.90;;;;;;5007664;28;20061;-68
2023/01/01 12:41:39;;;;;;;11.95;5.22;;;12.20;99.90;;;;;;5007040;28;20107;-68
2023/01/01 12:44:29;;;;;;;17.67;6.38;;;12.20;99.90;;;;;;5006444;28;20832;-68
2023/01/01 12:47:07;;;;;;;10.48;4.53;;;12.20;99.90;;;;;;4994630;28;20042;-68
2023/01/01 12:50:02;;;;;;;15.68;5.95;;;12.20;99.90;;;;;;5002124;28;20050;-68
2023/01/01 12:52:36;;;;;;;16.95;7.32;;;12.10;99.90;;;;;;4990779;28;20050;-68
2023/01/01 12:55:23;;;;;;;11.40;5.20;;;12.10;99.90;;;;;;5007739;28;20069;-68
2023/01/01 12:58:10;;;;;;;11.60;6.53;;;12.10;99.90;;;;;;4995462;28;20041;-68
2023/01/01 13:00:44;;;;;;;38.33;13.23;;;12.00;99.90;;;;;;5008373;28;20316;-68
2023/01/01 13:03:22;;;;;;;22.77;11.15;;;12.00;99.90;;;;;;5003777;28;20056;-68